CMA CGM Turquoise — A8RB5 — position and weather

sailwx.info

Track history (hours):
 
Tides and Currents Weather Stations Pressure Air Temp Water Temp Dewpoint Dewpoint Depression Visibility Wind Speed Wind Dir Waves Ship Positions

CMA CGM Turquoise

Last reported at 2017-Sep-05 21:39 UTC. Time now 2017-Oct-22 17:35 UTC.
Position S 31°16' E 035°26'.
Warning: this ship's position is 46 days out of date.

Length 258 m; draft 12.6 m.

Type: Ship (hazmat cat C). MMSI: 636014059.

Date/timePositionNaut miles runAvg speedWind from/ knotsBaromVisibWave heightAir tempDewpointWater temp
2017-Sep-05 21:39S 31°16' E 035°26'618.4
2017-Sep-05 21:21S 31°14' E 035°32'718.1
2017-Sep-05 20:58S 31°12' E 035°39'1418.4
2017-Sep-05 20:14S 31°06' E 035°54'418.5
2017-Sep-05 20:00S 31°05' E 035°59'918.7
2017-Sep-05 19:30S 31°01' E 036°09'1018.9
2017-Sep-05 19:00S 30°58' E 036°19'919.1
2017-Sep-05 18:30S 30°54' E 036°29'2619.0
2017-Sep-05 17:08S 30°44' E 036°57'418.8
2017-Sep-05 16:55S 30°42' E 037°02'818.9
2017-Sep-05 16:29S 30°39' E 037°10'918.9
2017-Sep-05 16:00S 30°36' E 037°20'1218.3
2017-Sep-05 15:20S 30°31' E 037°33'5418.2
2017-Sep-05 12:23S 30°10' E 038°31'718.3
2017-Sep-05 12:00S 30°08' E 038°38'918.5
2017-Sep-05 11:30S 30°04' E 038°48'1018.1
2017-Sep-05 10:59S 30°00' E 038°58'918.3
2017-Sep-05 10:29S 29°57' E 039°08'1918.4
2017-Sep-05 09:26S 29°49' E 039°28'2018.5
2017-Sep-05 08:19S 29°41' E 039°50'  
2017-Sep-02 16:48S 20°45' E 057°35'  
Track history (hours):
 
Tides and Currents Weather Stations Pressure Air Temp Water Temp Dewpoint Dewpoint Depression Visibility Wind Speed Wind Dir Waves Ship Positions

CMA CGM Turquoise

Last reported at 2017-Sep-05 21:39 UTC. Time now 2017-Oct-22 17:35 UTC.
Position S 31°16' E 035°26'.
Warning: this ship's position is 46 days out of date.

Length 258 m; draft 12.6 m.

Type: Ship (hazmat cat C). MMSI: 636014059.

Date/timePositionNaut miles runAvg speedWind from/ knotsBaromVisibWave heightAir tempDewpointWater temp
2017-Sep-05 21:39S 31°16' E 035°26'618.4
2017-Sep-05 21:21S 31°14' E 035°32'718.1
2017-Sep-05 20:58S 31°12' E 035°39'1418.4
2017-Sep-05 20:14S 31°06' E 035°54'418.5
2017-Sep-05 20:00S 31°05' E 035°59'918.7
2017-Sep-05 19:30S 31°01' E 036°09'1018.9
2017-Sep-05 19:00S 30°58' E 036°19'919.1
2017-Sep-05 18:30S 30°54' E 036°29'2619.0
2017-Sep-05 17:08S 30°44' E 036°57'418.8
2017-Sep-05 16:55S 30°42' E 037°02'818.9
2017-Sep-05 16:29S 30°39' E 037°10'918.9
2017-Sep-05 16:00S 30°36' E 037°20'1218.3
2017-Sep-05 15:20S 30°31' E 037°33'5418.2
2017-Sep-05 12:23S 30°10' E 038°31'718.3
2017-Sep-05 12:00S 30°08' E 038°38'918.5
2017-Sep-05 11:30S 30°04' E 038°48'1018.1
2017-Sep-05 10:59S 30°00' E 038°58'918.3
2017-Sep-05 10:29S 29°57' E 039°08'1918.4
2017-Sep-05 09:26S 29°49' E 039°28'2018.5
2017-Sep-05 08:19S 29°41' E 039°50'  
2017-Sep-02 16:48S 20°45' E 057°35'  

Dump ship's entire track history